sensor_id;sensor_type;location;lat;lon;timestamp;temperature;humidity
14097;DHT22;7125;48.106;11.544;2023-02-28T00:02:14;-2.80;99.90
14097;DHT22;7125;48.106;11.544;2023-02-28T00:04:45;-2.80;99.90
14097;DHT22;7125;48.106;11.544;2023-02-28T00:07:18;-2.80;99.90
14097;DHT22;7125;48.106;11.544;2023-02-28T00:09:45;-2.80;99.90
14097;DHT22;7125;48.106;11.544;2023-02-28T00:12:12;-2.80;99.90
14097;DHT22;7125;48.106;11.544;2023-02-28T00:14:39;-2.90;99.90
14097;DHT22;7125;48.106;11.544;2023-02-28T00:17:07;-2.90;99.90
14097;DHT22;7125;48.106;11.544;2023-02-28T00:19:34;-2.90;99.90
14097;DHT22;7125;48.106;11.544;2023-02-28T00:22:01;-2.90;99.90
14097;DHT22;7125;48.106;11.544;2023-02-28T00:24:28;-3.00;99.90
14097;DHT22;7125;48.106;11.544;2023-02-28T00:26:55;-3.00;99.90
14097;DHT22;7125;48.106;11.544;2023-02-28T00:29:22;-3.00;99.90
14097;DHT22;7125;48.106;11.544;2023-02-28T00:31:49;-3.00;99.90
14097;DHT22;7125;48.106;11.544;2023-02-28T00:34:17;-3.00;99.90
14097;DHT22;7125;48.106;11.544;2023-02-28T00:36:44;-3.00;99.90
14097;DHT22;7125;48.106;11.544;2023-02-28T00:39:11;-3.00;99.90
14097;DHT22;7125;48.106;11.544;2023-02-28T00:41:38;-3.00;99.90
14097;DHT22;7125;48.106;11.544;2023-02-28T00:44:06;-2.90;99.90
14097;DHT22;7125;48.106;11.544;2023-02-28T00:46:33;-3.00;99.90
14097;DHT22;7125;48.106;11.544;2023-02-28T00:49:00;-3.00;99.90
14097;DHT22;7125;48.106;11.544;2023-02-28T00:51:29;-3.00;99.90
14097;DHT22;7125;48.106;11.544;2023-02-28T00:53:57;-3.00;99.90
14097;DHT22;7125;48.106;11.544;2023-02-28T00:56:23;-3.00;99.90
14097;DHT22;7125;48.106;11.544;2023-02-28T00:58:50;-2.90;99.90
14097;DHT22;7125;48.106;11.544;2023-02-28T01:01:18;-3.00;99.90
14097;DHT22;7125;48.106;11.544;2023-02-28T01:03:46;-3.00;99.90
14097;DHT22;7125;48.106;11.544;2023-02-28T01:06:13;-3.00;99.90
14097;DHT22;7125;48.106;11.544;2023-02-28T01:08:42;-3.10;99.90
14097;DHT22;7125;48.106;11.544;2023-02-28T01:11:11;-3.10;99.90
14097;DHT22;7125;48.106;11.544;2023-02-28T01:13:39;-3.10;99.90
14097;DHT22;7125;48.106;11.544;2023-02-28T01:16:07;-3.10;99.90
14097;DHT22;7125;48.106;11.544;2023-02-28T01:18:34;-3.20;99.90
14097;DHT22;7125;48.106;11.544;2023-02-28T01:21:03;-3.20;99.90
14097;DHT22;7125;48.106;11.544;2023-02-28T01:23:30;-3.20;99.90
14097;DHT22;7125;48.106;11.544;2023-02-28T01:26:05;-3.20;99.90
14097;DHT22;7125;48.106;11.544;2023-02-28T01:28:32;-3.20;99.90
14097;DHT22;7125;48.106;11.544;2023-02-28T01:30:59;-3.20;99.90
14097;DHT22;7125;48.106;11.544;2023-02-28T01:33:26;-3.10;99.90
14097;DHT22;7125;48.106;11.544;2023-02-28T01:35:58;-3.10;99.90
14097;DHT22;7125;48.106;11.544;2023-02-28T01:38:25;-3.10;99.90
14097;DHT22;7125;48.106;11.544;2023-02-28T01:40:54;-3.10;99.90
14097;DHT22;7125;48.106;11.544;2023-02-28T01:43:24;-3.20;99.90
14097;DHT22;7125;48.106;11.544;2023-02-28T01:45:55;-3.20;99.90
14097;DHT22;7125;48.106;11.544;2023-02-28T01:48:26;-3.20;99.90
14097;DHT22;7125;48.106;11.544;2023-02-28T01:50:55;-3.30;99.90
14097;DHT22;7125;48.106;11.544;2023-02-28T01:53:31;-3.30;99.90
14097;DHT22;7125;48.106;11.544;2023-02-28T01:56:00;-3.30;99.90
14097;DHT22;7125;48.106;11.544;2023-02-28T01:58:32;-3.30;99.90
14097;DHT22;7125;48.106;11.544;2023-02-28T02:00:59;-3.30;99.90
14097;DHT22;7125;48.106;11.544;2023-02-28T02:03:29;-3.30;99.90
14097;DHT22;7125;48.106;11.544;2023-02-28T02:05:57;-3.30;99.90
14097;DHT22;7125;48.106;11.544;2023-02-28T02:08:26;-3.30;99.90
14097;DHT22;7125;48.106;11.544;2023-02-28T02:10:55;-3.30;99.90
14097;DHT22;7125;48.106;11.544;2023-02-28T02:13:34;-3.30;99.90
14097;DHT22;7125;48.106;11.544;2023-02-28T02:16:18;-3.30;99.90
14097;DHT22;7125;48.106;11.544;2023-02-28T02:18:51;-3.30;99.90
14097;DHT22;7125;48.106;11.544;2023-02-28T02:21:42;-3.40;99.90
14097;DHT22;7125;48.106;11.544;2023-02-28T02:27:45;-3.40;99.90
14097;DHT22;7125;48.106;11.544;2023-02-28T02:30:40;-3.40;99.90
14097;DHT22;7125;48.106;11.544;2023-02-28T02:33:26;-3.40;99.90
14097;DHT22;7125;48.106;11.544;2023-02-28T02:36:03;-3.40;99.90
14097;DHT22;7125;48.106;11.544;2023-02-28T02:38:36;-3.40;99.90
14097;DHT22;7125;48.106;11.544;2023-02-28T02:41:10;-3.40;99.90
14097;DHT22;7125;48.106;11.544;2023-02-28T02:43:42;-3.40;99.90
14097;DHT22;7125;48.106;11.544;2023-02-28T02:46:15;-3.40;99.90
14097;DHT22;7125;48.106;11.544;2023-02-28T02:48:45;-3.40;99.90
14097;DHT22;7125;48.106;11.544;2023-02-28T02:51:17;-3.40;99.90
14097;DHT22;7125;48.106;11.544;2023-02-28T02:53:48;-3.50;99.90
14097;DHT22;7125;48.106;11.544;2023-02-28T02:56:21;-3.50;99.90
14097;DHT22;7125;48.106;11.544;2023-02-28T02:58:51;-3.50;99.90
14097;DHT22;7125;48.106;11.544;2023-02-28T03:01:22;-3.50;99.90
14097;DHT22;7125;48.106;11.544;2023-02-28T03:03:56;-3.50;99.90
14097;DHT22;7125;48.106;11.544;2023-02-28T03:06:26;-3.50;99.90
14097;DHT22;7125;48.106;11.544;2023-02-28T03:08:53;-3.50;99.90
14097;DHT22;7125;48.106;11.544;2023-02-28T03:11:22;-3.50;99.90
14097;DHT22;7125;48.106;11.544;2023-02-28T03:17:11;-3.50;99.90
14097;DHT22;7125;48.106;11.544;2023-02-28T03:20:04;-3.60;99.90
14097;DHT22;7125;48.106;11.544;2023-02-28T03:22:55;-3.60;99.90
14097;DHT22;7125;48.106;11.544;2023-02-28T03:25:31;-3.60;99.90
14097;DHT22;7125;48.106;11.544;2023-02-28T03:28:08;-3.50;99.90
14097;DHT22;7125;48.106;11.544;2023-02-28T03:30:43;-3.50;99.90
14097;DHT22;7125;48.106;11.544;2023-02-28T03:33:16;-3.60;99.90
14097;DHT22;7125;48.106;11.544;2023-02-28T03:35:51;-3.60;99.90
14097;DHT22;7125;48.106;11.544;2023-02-28T03:38:24;-3.60;99.90
14097;DHT22;7125;48.106;11.544;2023-02-28T03:40:58;-3.60;99.90
14097;DHT22;7125;48.106;11.544;2023-02-28T03:43:31;-3.60;99.90
14097;DHT22;7125;48.106;11.544;2023-02-28T03:46:02;-3.60;99.90
14097;DHT22;7125;48.106;11.544;2023-02-28T03:48:37;-3.70;99.90
14097;DHT22;7125;48.106;11.544;2023-02-28T03:51:10;-3.70;99.90
14097;DHT22;7125;48.106;11.544;2023-02-28T03:53:48;-3.70;99.90
14097;DHT22;7125;48.106;11.544;2023-02-28T03:56:22;-3.70;99.90
14097;DHT22;7125;48.106;11.544;2023-02-28T03:58:55;-3.70;99.90
14097;DHT22;7125;48.106;11.544;2023-02-28T04:01:25;-3.80;99.90
14097;DHT22;7125;48.106;11.544;2023-02-28T04:03:54;-3.80;99.90
14097;DHT22;7125;48.106;11.544;2023-02-28T04:06:22;-3.80;99.90
14097;DHT22;7125;48.106;11.544;2023-02-28T04:08:51;-3.80;99.90
14097;DHT22;7125;48.106;11.544;2023-02-28T04:11:27;-3.70;99.90
14097;DHT22;7125;48.106;11.544;2023-02-28T04:14:00;-3.70;99.90
14097;DHT22;7125;48.106;11.544;2023-02-28T04:16:32;-3.70;99.90
14097;DHT22;7125;48.106;11.544;2023-02-28T04:18:59;-3.70;99.90
14097;DHT22;7125;48.106;11.544;2023-02-28T04:21:29;-3.70;99.90
14097;DHT22;7125;48.106;11.544;2023-02-28T04:24:03;-3.70;99.90
14097;DHT22;7125;48.106;11.544;2023-02-28T04:26:33;-3.70;99.90
14097;DHT22;7125;48.106;11.544;2023-02-28T04:29:01;-3.70;99.90
14097;DHT22;7125;48.106;11.544;2023-02-28T04:31:28;-3.70;99.90
14097;DHT22;7125;48.106;11.544;2023-02-28T04:33:56;-3.60;99.90
14097;DHT22;7125;48.106;11.544;2023-02-28T04:36:23;-3.60;99.90
14097;DHT22;7125;48.106;11.544;2023-02-28T04:38:50;-3.70;99.90
14097;DHT22;7125;48.106;11.544;2023-02-28T04:41:19;-3.70;99.90
14097;DHT22;7125;48.106;11.544;2023-02-28T04:43:47;-3.60;99.90
14097;DHT22;7125;48.106;11.544;2023-02-28T04:46:15;-3.60;99.90
14097;DHT22;7125;48.106;11.544;2023-02-28T04:48:46;-3.50;99.90
14097;DHT22;7125;48.106;11.544;2023-02-28T04:51:15;-3.50;99.90
14097;DHT22;7125;48.106;11.544;2023-02-28T04:53:43;-3.50;99.90
14097;DHT22;7125;48.106;11.544;2023-02-28T04:56:12;-3.50;99.90
14097;DHT22;7125;48.106;11.544;2023-02-28T04:58:41;-3.40;99.90
14097;DHT22;7125;48.106;11.544;2023-02-28T05:01:22;-3.40;99.90
14097;DHT22;7125;48.106;11.544;2023-02-28T05:03:50;-3.40;99.90
14097;DHT22;7125;48.106;11.544;2023-02-28T05:06:18;-3.40;99.90
14097;DHT22;7125;48.106;11.544;2023-02-28T05:08:46;-3.30;99.90
14097;DHT22;7125;48.106;11.544;2023-02-28T05:11:16;-3.30;99.90
14097;DHT22;7125;48.106;11.544;2023-02-28T05:13:46;-3.20;99.90
14097;DHT22;7125;48.106;11.544;2023-02-28T05:16:14;-3.20;99.90
14097;DHT22;7125;48.106;11.544;2023-02-28T05:18:41;-3.10;99.90
14097;DHT22;7125;48.106;11.544;2023-02-28T05:21:26;-3.10;99.90
14097;DHT22;7125;48.106;11.544;2023-02-28T05:23:54;-3.00;99.90
14097;DHT22;7125;48.106;11.544;2023-02-28T05:26:22;-3.00;99.90
14097;DHT22;7125;48.106;11.544;2023-02-28T05:28:51;-2.90;99.90
14097;DHT22;7125;48.106;11.544;2023-02-28T05:31:18;-2.90;99.90
14097;DHT22;7125;48.106;11.544;2023-02-28T05:33:45;-2.80;99.90
14097;DHT22;7125;48.106;11.544;2023-02-28T05:36:12;-2.80;99.90
14097;DHT22;7125;48.106;11.544;2023-02-28T05:38:39;-2.80;99.90
14097;DHT22;7125;48.106;11.544;2023-02-28T05:41:07;-2.70;99.90
14097;DHT22;7125;48.106;11.544;2023-02-28T05:43:34;-2.70;99.90
14097;DHT22;7125;48.106;11.544;2023-02-28T05:46:05;-2.70;99.90
14097;DHT22;7125;48.106;11.544;2023-02-28T05:48:32;-2.60;99.90
14097;DHT22;7125;48.106;11.544;2023-02-28T05:50:59;-2.60;99.90
14097;DHT22;7125;48.106;11.544;2023-02-28T05:53:28;-2.50;99.90
14097;DHT22;7125;48.106;11.544;2023-02-28T05:55:55;-2.60;99.90
14097;DHT22;7125;48.106;11.544;2023-02-28T05:58:23;-2.50;99.90
14097;DHT22;7125;48.106;11.544;2023-02-28T06:00:51;-2.40;99.90
14097;DHT22;7125;48.106;11.544;2023-02-28T06:03:19;-2.40;99.90
14097;DHT22;7125;48.106;11.544;2023-02-28T06:05:46;-2.30;99.90
14097;DHT22;7125;48.106;11.544;2023-02-28T06:08:13;-2.30;99.90
14097;DHT22;7125;48.106;11.544;2023-02-28T06:10:40;-2.20;99.90
14097;DHT22;7125;48.106;11.544;2023-02-28T06:13:07;-2.20;99.90
14097;DHT22;7125;48.106;11.544;2023-02-28T06:15:34;-2.20;99.90
14097;DHT22;7125;48.106;11.544;2023-02-28T06:18:01;-2.10;99.90
14097;DHT22;7125;48.106;11.544;2023-02-28T06:20:30;-2.10;99.90
14097;DHT22;7125;48.106;11.544;2023-02-28T06:22:57;-2.10;99.90
14097;DHT22;7125;48.106;11.544;2023-02-28T06:25:25;-2.10;99.90
14097;DHT22;7125;48.106;11.544;2023-02-28T06:27:52;-2.10;99.90
14097;DHT22;7125;48.106;11.544;2023-02-28T06:30:19;-2.00;99.90
14097;DHT22;7125;48.106;11.544;2023-02-28T06:32:50;-2.00;99.90
14097;DHT22;7125;48.106;11.544;2023-02-28T06:35:17;-2.10;99.90
14097;DHT22;7125;48.106;11.544;2023-02-28T06:37:45;-2.00;99.90
14097;DHT22;7125;48.106;11.544;2023-02-28T06:40:13;-2.00;99.90
14097;DHT22;7125;48.106;11.544;2023-02-28T06:42:41;-2.00;99.90
14097;DHT22;7125;48.106;11.544;2023-02-28T06:45:08;-2.10;99.90
14097;DHT22;7125;48.106;11.544;2023-02-28T06:47:36;-2.00;99.90
14097;DHT22;7125;48.106;11.544;2023-02-28T06:50:03;-2.00;99.90
14097;DHT22;7125;48.106;11.544;2023-02-28T06:52:31;-2.00;99.90
14097;DHT22;7125;48.106;11.544;2023-02-28T06:55:03;-2.00;99.90
14097;DHT22;7125;48.106;11.544;2023-02-28T06:57:31;-2.00;99.90
14097;DHT22;7125;48.106;11.544;2023-02-28T07:00:00;-2.00;99.90
14097;DHT22;7125;48.106;11.544;2023-02-28T07:02:28;-1.90;99.90
14097;DHT22;7125;48.106;11.544;2023-02-28T07:04:55;-1.90;99.90
14097;DHT22;7125;48.106;11.544;2023-02-28T07:07:22;-1.80;99.90
14097;DHT22;7125;48.106;11.544;2023-02-28T07:09:49;-1.80;99.90
14097;DHT22;7125;48.106;11.544;2023-02-28T07:12:18;-1.80;99.90
14097;DHT22;7125;48.106;11.544;2023-02-28T07:14:45;-1.80;99.90
14097;DHT22;7125;48.106;11.544;2023-02-28T07:17:12;-1.80;99.90
14097;DHT22;7125;48.106;11.544;2023-02-28T07:19:39;-1.80;99.90
14097;DHT22;7125;48.106;11.544;2023-02-28T07:22:07;-1.80;99.90
14097;DHT22;7125;48.106;11.544;2023-02-28T07:24:34;-1.80;99.90
14097;DHT22;7125;48.106;11.544;2023-02-28T07:27:01;-1.80;99.90
14097;DHT22;7125;48.106;11.544;2023-02-28T07:29:29;-1.70;99.90
14097;DHT22;7125;48.106;11.544;2023-02-28T07:31:57;-1.70;99.90
14097;DHT22;7125;48.106;11.544;2023-02-28T07:34:24;-1.70;99.90
14097;DHT22;7125;48.106;11.544;2023-02-28T07:36:53;-1.70;99.90
14097;DHT22;7125;48.106;11.544;2023-02-28T07:39:20;-1.60;99.90
14097;DHT22;7125;48.106;11.544;2023-02-28T07:41:47;-1.60;99.90
14097;DHT22;7125;48.106;11.544;2023-02-28T07:44:14;-1.60;99.90
14097;DHT22;7125;48.106;11.544;2023-02-28T07:46:43;-1.60;99.90
14097;DHT22;7125;48.106;11.544;2023-02-28T07:49:10;-1.50;99.90
14097;DHT22;7125;48.106;11.544;2023-02-28T07:51:37;-1.50;99.90
14097;DHT22;7125;48.106;11.544;2023-02-28T07:54:05;-1.50;99.90
14097;DHT22;7125;48.106;11.544;2023-02-28T07:56:32;-1.50;99.90
14097;DHT22;7125;48.106;11.544;2023-02-28T07:58:59;-1.40;99.90
14097;DHT22;7125;48.106;11.544;2023-02-28T08:01:27;-1.40;99.90
14097;DHT22;7125;48.106;11.544;2023-02-28T08:03:55;-1.40;99.90
14097;DHT22;7125;48.106;11.544;2023-02-28T08:06:23;-1.40;99.90
14097;DHT22;7125;48.106;11.544;2023-02-28T08:08:52;-1.30;99.90
14097;DHT22;7125;48.106;11.544;2023-02-28T08:11:19;-1.30;99.90
14097;DHT22;7125;48.106;11.544;2023-02-28T08:13:46;-1.30;99.90
14097;DHT22;7125;48.106;11.544;2023-02-28T08:16:14;-1.20;99.90
14097;DHT22;7125;48.106;11.544;2023-02-28T08:18:46;-1.20;99.90
14097;DHT22;7125;48.106;11.544;2023-02-28T08:21:15;-1.20;99.90
14097;DHT22;7125;48.106;11.544;2023-02-28T08:23:42;-1.20;99.90
14097;DHT22;7125;48.106;11.544;2023-02-28T08:26:09;-1.20;99.90
14097;DHT22;7125;48.106;11.544;2023-02-28T08:28:36;-1.10;99.90
14097;DHT22;7125;48.106;11.544;2023-02-28T08:31:07;-1.10;99.90
14097;DHT22;7125;48.106;11.544;2023-02-28T08:33:34;-1.00;99.90
14097;DHT22;7125;48.106;11.544;2023-02-28T08:36:01;-1.10;99.90
14097;DHT22;7125;48.106;11.544;2023-02-28T08:38:30;-1.00;99.90
14097;DHT22;7125;48.106;11.544;2023-02-28T08:40:58;-1.00;99.90
14097;DHT22;7125;48.106;11.544;2023-02-28T08:43:25;-0.90;99.90
14097;DHT22;7125;48.106;11.544;2023-02-28T08:45:53;-0.90;99.90
14097;DHT22;7125;48.106;11.544;2023-02-28T08:48:22;-0.80;99.90
14097;DHT22;7125;48.106;11.544;2023-02-28T08:50:56;-0.70;99.90
14097;DHT22;7125;48.106;11.544;2023-02-28T08:53:23;-0.70;99.90
14097;DHT22;7125;48.106;11.544;2023-02-28T08:55:59;-0.70;99.90
14097;DHT22;7125;48.106;11.544;2023-02-28T08:58:27;-0.60;99.90
14097;DHT22;7125;48.106;11.544;2023-02-28T09:00:55;-0.60;99.90
14097;DHT22;7125;48.106;11.544;2023-02-28T09:03:23;-0.60;99.90
14097;DHT22;7125;48.106;11.544;2023-02-28T09:05:55;-0.60;99.90
14097;DHT22;7125;48.106;11.544;2023-02-28T09:08:23;-0.50;99.90
14097;DHT22;7125;48.106;11.544;2023-02-28T09:10:50;-0.40;99.90
14097;DHT22;7125;48.106;11.544;2023-02-28T09:13:19;-0.30;99.90
14097;DHT22;7125;48.106;11.544;2023-02-28T09:15:46;-0.20;99.90
14097;DHT22;7125;48.106;11.544;2023-02-28T09:18:13;-0.10;99.90
14097;DHT22;7125;48.106;11.544;2023-02-28T09:20:41;-0.10;99.90
14097;DHT22;7125;48.106;11.544;2023-02-28T09:23:12;-0.10;99.90
14097;DHT22;7125;48.106;11.544;2023-02-28T09:25:45;-0.20;99.90
14097;DHT22;7125;48.106;11.544;2023-02-28T09:28:13;-0.10;99.90
14097;DHT22;7125;48.106;11.544;2023-02-28T09:30:44;-0.20;99.90
14097;DHT22;7125;48.106;11.544;2023-02-28T09:33:12;-0.20;99.90
14097;DHT22;7125;48.106;11.544;2023-02-28T09:35:39;-0.10;99.90
14097;DHT22;7125;48.106;11.544;2023-02-28T09:38:06;-0.10;99.90
14097;DHT22;7125;48.106;11.544;2023-02-28T09:40:36;0.00;99.90
14097;DHT22;7125;48.106;11.544;2023-02-28T09:43:04;0.00;99.90
14097;DHT22;7125;48.106;11.544;2023-02-28T09:45:36;0.10;99.90
14097;DHT22;7125;48.106;11.544;2023-02-28T09:48:19;0.10;99.90
14097;DHT22;7125;48.106;11.544;2023-02-28T09:50:49;0.20;99.90
14097;DHT22;7125;48.106;11.544;2023-02-28T09:53:22;0.20;99.90
14097;DHT22;7125;48.106;11.544;2023-02-28T09:55:55;0.20;99.90
14097;DHT22;7125;48.106;11.544;2023-02-28T09:58:28;0.30;99.90
14097;DHT22;7125;48.106;11.544;2023-02-28T10:01:02;0.40;99.90
14097;DHT22;7125;48.106;11.544;2023-02-28T10:03:36;0.40;99.90
14097;DHT22;7125;48.106;11.544;2023-02-28T10:06:11;0.50;99.90
14097;DHT22;7125;48.106;11.544;2023-02-28T10:08:42;0.50;99.90
14097;DHT22;7125;48.106;11.544;2023-02-28T10:11:14;0.60;99.90
14097;DHT22;7125;48.106;11.544;2023-02-28T10:13:50;0.70;99.90
14097;DHT22;7125;48.106;11.544;2023-02-28T10:16:22;0.70;99.90
14097;DHT22;7125;48.106;11.544;2023-02-28T10:18:56;0.70;99.90
14097;DHT22;7125;48.106;11.544;2023-02-28T10:21:27;0.70;99.90
14097;DHT22;7125;48.106;11.544;2023-02-28T10:24:02;0.70;99.90
14097;DHT22;7125;48.106;11.544;2023-02-28T10:26:31;0.80;99.90
14097;DHT22;7125;48.106;11.544;2023-02-28T10:28:59;0.90;99.90
14097;DHT22;7125;48.106;11.544;2023-02-28T10:31:26;1.00;99.90
14097;DHT22;7125;48.106;11.544;2023-02-28T10:33:55;1.10;99.90
14097;DHT22;7125;48.106;11.544;2023-02-28T10:39:37;0.90;99.90
14097;DHT22;7125;48.106;11.544;2023-02-28T10:42:04;0.90;99.90
14097;DHT22;7125;48.106;11.544;2023-02-28T10:44:32;0.80;99.90
14097;DHT22;7125;48.106;11.544;2023-02-28T10:46:59;0.80;99.90
14097;DHT22;7125;48.106;11.544;2023-02-28T10:49:28;0.90;99.90
14097;DHT22;7125;48.106;11.544;2023-02-28T10:51:57;0.90;99.90
14097;DHT22;7125;48.106;11.544;2023-02-28T10:54:29;1.10;99.90
14097;DHT22;7125;48.106;11.544;2023-02-28T10:57:18;1.20;99.90
14097;DHT22;7125;48.106;11.544;2023-02-28T10:59:50;1.30;99.90
14097;DHT22;7125;48.106;11.544;2023-02-28T11:02:36;1.40;99.90
14097;DHT22;7125;48.106;11.544;2023-02-28T11:05:24;1.40;99.90
14097;DHT22;7125;48.106;11.544;2023-02-28T11:07:51;1.50;99.90
14097;DHT22;7125;48.106;11.544;2023-02-28T11:10:20;1.50;99.90
14097;DHT22;7125;48.106;11.544;2023-02-28T11:12:49;1.60;99.90
14097;DHT22;7125;48.106;11.544;2023-02-28T11:15:23;1.60;99.90
14097;DHT22;7125;48.106;11.544;2023-02-28T11:17:54;1.70;99.90
14097;DHT22;7125;48.106;11.544;2023-02-28T11:20:25;1.70;99.90
14097;DHT22;7125;48.106;11.544;2023-02-28T11:22:53;1.80;99.90
14097;DHT22;7125;48.106;11.544;2023-02-28T11:25:24;1.70;99.90
14097;DHT22;7125;48.106;11.544;2023-02-28T11:27:53;1.80;99.90
14097;DHT22;7125;48.106;11.544;2023-02-28T11:30:32;1.80;99.90
14097;DHT22;7125;48.106;11.544;2023-02-28T11:33:00;1.80;99.90
14097;DHT22;7125;48.106;11.544;2023-02-28T11:35:31;1.80;99.90
14097;DHT22;7125;48.106;11.544;2023-02-28T11:38:00;1.90;99.90
14097;DHT22;7125;48.106;11.544;2023-02-28T11:40:38;2.00;99.90
14097;DHT22;7125;48.106;11.544;2023-02-28T11:43:17;2.00;99.90
14097;DHT22;7125;48.106;11.544;2023-02-28T11:46:01;2.20;99.90
14097;DHT22;7125;48.106;11.544;2023-02-28T11:48:40;2.30;99.90
14097;DHT22;7125;48.106;11.544;2023-02-28T11:51:17;2.30;99.90
14097;DHT22;7125;48.106;11.544;2023-02-28T11:57:22;2.20;99.90
14097;DHT22;7125;48.106;11.544;2023-02-28T12:00:00;2.30;99.90
14097;DHT22;7125;48.106;11.544;2023-02-28T12:02:54;2.40;99.90
14097;DHT22;7125;48.106;11.544;2023-02-28T12:05:29;2.50;99.90
14097;DHT22;7125;48.106;11.544;2023-02-28T12:08:10;2.60;99.90
14097;DHT22;7125;48.106;11.544;2023-02-28T12:10:53;2.70;99.90
14097;DHT22;7125;48.106;11.544;2023-02-28T12:13:26;2.80;99.90
14097;DHT22;7125;48.106;11.544;2023-02-28T12:16:17;2.80;99.90
14097;DHT22;7125;48.106;11.544;2023-02-28T12:19:18;2.80;99.90
14097;DHT22;7125;48.106;11.544;2023-02-28T12:22:12;2.80;99.90
14097;DHT22;7125;48.106;11.544;2023-02-28T12:25:02;2.60;99.90
14097;DHT22;7125;48.106;11.544;2023-02-28T12:27:38;2.60;99.90
14097;DHT22;7125;48.106;11.544;2023-02-28T12:30:14;2.60;99.90
14097;DHT22;7125;48.106;11.544;2023-02-28T12:32:46;2.70;99.90
14097;DHT22;7125;48.106;11.544;2023-02-28T12:35:17;2.70;99.90
14097;DHT22;7125;48.106;11.544;2023-02-28T12:37:49;2.80;99.90
14097;DHT22;7125;48.106;11.544;2023-02-28T12:40:21;2.80;99.90
14097;DHT22;7125;48.106;11.544;2023-02-28T12:42:51;2.80;99.90
14097;DHT22;7125;48.106;11.544;2023-02-28T12:45:20;2.80;99.90
14097;DHT22;7125;48.106;11.544;2023-02-28T12:47:57;2.90;99.90
14097;DHT22;7125;48.106;11.544;2023-02-28T12:50:25;2.90;99.90
14097;DHT22;7125;48.106;11.544;2023-02-28T12:52:59;2.80;99.90
14097;DHT22;7125;48.106;11.544;2023-02-28T12:55:35;2.80;99.90
14097;DHT22;7125;48.106;11.544;2023-02-28T12:58:13;2.70;99.90
14097;DHT22;7125;48.106;11.544;2023-02-28T13:00:50;2.70;99.90
14097;DHT22;7125;48.106;11.544;2023-02-28T13:03:57;2.70;99.90
14097;DHT22;7125;48.106;11.544;2023-02-28T13:06:59;2.60;99.90
14097;DHT22;7125;48.106;11.544;2023-02-28T13:09:32;2.70;99.90
14097;DHT22;7125;48.106;11.544;2023-02-28T13:12:00;2.80;99.90
14097;DHT22;7125;48.106;11.544;2023-02-28T13:14:29;2.90;99.90
14097;DHT22;7125;48.106;11.544;2023-02-28T13:17:01;3.00;99.90
14097;DHT22;7125;48.106;11.544;2023-02-28T13:19:30;3.20;99.90
14097;DHT22;7125;48.106;11.544;2023-02-28T13:21:58;3.40;99.90
14097;DHT22;7125;48.106;11.544;2023-02-28T13:24:48;3.60;99.90
14097;DHT22;7125;48.106;11.544;2023-02-28T13:27:38;3.90;99.90
14097;DHT22;7125;48.106;11.544;2023-02-28T13:33:25;4.20;99.90
14097;DHT22;7125;48.106;11.544;2023-02-28T13:36:26;4.10;99.90
14097;DHT22;7125;48.106;11.544;2023-02-28T13:38:55;4.30;99.90
14097;DHT22;7125;48.106;11.544;2023-02-28T13:41:43;4.30;99.90
14097;DHT22;7125;48.106;11.544;2023-02-28T13:44:14;4.20;99.90
14097;DHT22;7125;48.106;11.544;2023-02-28T13:49:46;4.30;99.90
14097;DHT22;7125;48.106;11.544;2023-02-28T13:52:17;4.30;99.70
14097;DHT22;7125;48.106;11.544;2023-02-28T13:54:57;4.10;99.80
14097;DHT22;7125;48.106;11.544;2023-02-28T13:57:39;4.00;99.90
14097;DHT22;7125;48.106;11.544;2023-02-28T14:00:20;3.80;99.90
14097;DHT22;7125;48.106;11.544;2023-02-28T14:03:07;3.90;99.90
14097;DHT22;7125;48.106;11.544;2023-02-28T14:05:37;4.00;99.90
14097;DHT22;7125;48.106;11.544;2023-02-28T14:08:06;4.10;99.90
14097;DHT22;7125;48.106;11.544;2023-02-28T14:10:39;4.30;99.90
14097;DHT22;7125;48.106;11.544;2023-02-28T14:13:14;4.50;99.90
14097;DHT22;7125;48.106;11.544;2023-02-28T14:16:05;4.50;99.60
14097;DHT22;7125;48.106;11.544;2023-02-28T14:18:34;4.50;99.60
14097;DHT22;7125;48.106;11.544;2023-02-28T14:21:09;4.50;99.60
14097;DHT22;7125;48.106;11.544;2023-02-28T14:23:52;4.40;99.60
14097;DHT22;7125;48.106;11.544;2023-02-28T14:26:36;4.30;99.20
14097;DHT22;7125;48.106;11.544;2023-02-28T14:29:23;4.10;99.50
14097;DHT22;7125;48.106;11.544;2023-02-28T14:32:05;4.00;99.90
14097;DHT22;7125;48.106;11.544;2023-02-28T14:34:40;4.00;99.90
14097;DHT22;7125;48.106;11.544;2023-02-28T14:37:15;4.00;99.90
14097;DHT22;7125;48.106;11.544;2023-02-28T14:39:43;3.90;99.60
14097;DHT22;7125;48.106;11.544;2023-02-28T14:42:28;3.90;99.60
14097;DHT22;7125;48.106;11.544;2023-02-28T14:44:56;3.80;99.80
14097;DHT22;7125;48.106;11.544;2023-02-28T14:47:28;3.90;99.60
14097;DHT22;7125;48.106;11.544;2023-02-28T14:49:58;3.90;99.90
14097;DHT22;7125;48.106;11.544;2023-02-28T14:52:27;3.90;99.80
14097;DHT22;7125;48.106;11.544;2023-02-28T14:54:56;3.90;99.90
14097;DHT22;7125;48.106;11.544;2023-02-28T14:57:25;3.90;99.90
14097;DHT22;7125;48.106;11.544;2023-02-28T15:00:00;3.70;99.90
14097;DHT22;7125;48.106;11.544;2023-02-28T15:02:34;3.50;99.90
14097;DHT22;7125;48.106;11.544;2023-02-28T15:05:16;3.50;99.90
14097;DHT22;7125;48.106;11.544;2023-02-28T15:07:48;3.50;99.90
14097;DHT22;7125;48.106;11.544;2023-02-28T15:10:27;3.40;99.90
14097;DHT22;7125;48.106;11.544;2023-02-28T15:12:57;3.40;99.90
14097;DHT22;7125;48.106;11.544;2023-02-28T15:15:28;3.20;99.90
14097;DHT22;7125;48.106;11.544;2023-02-28T15:18:04;3.20;99.90
14097;DHT22;7125;48.106;11.544;2023-02-28T15:20:32;3.10;99.90
14097;DHT22;7125;48.106;11.544;2023-02-28T15:23:00;3.10;99.90
14097;DHT22;7125;48.106;11.544;2023-02-28T15:25:28;3.10;99.90
14097;DHT22;7125;48.106;11.544;2023-02-28T15:27:56;3.10;99.90
14097;DHT22;7125;48.106;11.544;2023-02-28T15:30:26;3.00;99.90
14097;DHT22;7125;48.106;11.544;2023-02-28T15:33:15;2.90;99.90
14097;DHT22;7125;48.106;11.544;2023-02-28T15:35:44;2.80;99.90
14097;DHT22;7125;48.106;11.544;2023-02-28T15:38:18;2.80;99.90
14097;DHT22;7125;48.106;11.544;2023-02-28T15:40:51;2.70;99.90
14097;DHT22;7125;48.106;11.544;2023-02-28T15:43:24;2.70;99.90
14097;DHT22;7125;48.106;11.544;2023-02-28T15:45:56;2.60;99.90
14097;DHT22;7125;48.106;11.544;2023-02-28T15:48:27;2.60;99.90
14097;DHT22;7125;48.106;11.544;2023-02-28T15:50:57;2.50;99.90
14097;DHT22;7125;48.106;11.544;2023-02-28T15:53:31;2.60;99.90
14097;DHT22;7125;48.106;11.544;2023-02-28T15:56:01;2.50;99.90
14097;DHT22;7125;48.106;11.544;2023-02-28T15:58:29;2.40;99.90
14097;DHT22;7125;48.106;11.544;2023-02-28T16:01:08;2.50;99.90
14097;DHT22;7125;48.106;11.544;2023-02-28T16:03:48;2.50;99.90
14097;DHT22;7125;48.106;11.544;2023-02-28T16:06:38;2.40;99.90
14097;DHT22;7125;48.106;11.544;2023-02-28T16:09:10;2.30;99.90
14097;DHT22;7125;48.106;11.544;2023-02-28T16:11:39;2.20;99.90
14097;DHT22;7125;48.106;11.544;2023-02-28T16:14:16;2.20;99.90
14097;DHT22;7125;48.106;11.544;2023-02-28T16:16:44;2.20;99.90
14097;DHT22;7125;48.106;11.544;2023-02-28T16:19:12;2.10;99.90
14097;DHT22;7125;48.106;11.544;2023-02-28T16:21:40;2.10;99.90
14097;DHT22;7125;48.106;11.544;2023-02-28T16:24:07;2.10;99.90
14097;DHT22;7125;48.106;11.544;2023-02-28T16:26:34;2.10;99.90